Time;durP1;ratioP1;P1;durP2;ratioP2;P2;SDS_P1;SDS_P2;PMS_P1;PMS_P2;Temp;Humidity;BMP_temperature;BMP_pressure;BME280_temperature;BME280_humidity;BME280_pressure;Samples;Min_cycle;Max_cycle;Signal;HPM_P1;HPM_P2
2023/05/29 00:01:51;;;;;;;15.60;4.22;;;;;;;10.28;100.00;102559.44;5014548;28;20041;-75
2023/05/29 00:04:21;;;;;;;14.50;3.50;;;;;;;10.28;100.00;102555.06;4964114;28;20068;-75
2023/05/29 00:06:48;;;;;;;15.25;4.22;;;;;;;10.26;100.00;102567.28;5019234;28;20083;-75
2023/05/29 00:09:16;;;;;;;12.05;2.85;;;;;;;10.27;100.00;102563.81;5022582;28;20061;-75
2023/05/29 00:11:43;;;;;;;20.05;3.75;;;;;;;10.24;100.00;102565.44;5019651;28;20491;-75
2023/05/29 00:14:13;;;;;;;11.73;3.05;;;;;;;10.23;100.00;102569.84;5038789;28;20453;-75
2023/05/29 00:16:43;;;;;;;15.23;3.53;;;;;;;10.22;100.00;102567.16;5013004;28;20880;-75
2023/05/29 00:19:11;;;;;;;13.00;3.10;;;;;;;10.20;100.00;102571.47;5015630;28;20076;-75
2023/05/29 00:21:39;;;;;;;16.98;3.53;;;;;;;10.21;100.00;102570.59;5036837;28;20056;-75
2023/05/29 00:24:06;;;;;;;11.07;3.10;;;;;;;10.19;100.00;102569.66;5022060;28;20041;-75
2023/05/29 00:26:34;;;;;;;13.25;2.90;;;;;;;10.20;100.00;102563.56;5006464;28;20391;-75
2023/05/29 00:29:01;;;;;;;13.35;3.45;;;;;;;10.17;100.00;102564.38;5041097;28;20049;-75
2023/05/29 00:31:28;;;;;;;13.65;3.50;;;;;;;10.18;100.00;102570.53;5020056;28;20046;-75
2023/05/29 00:33:55;;;;;;;13.15;3.10;;;;;;;10.17;100.00;102566.09;5005636;28;20052;-75
2023/05/29 00:36:23;;;;;;;16.83;3.35;;;;;;;10.16;100.00;102562.56;4928335;28;20052;-75
2023/05/29 00:38:51;;;;;;;8.80;3.25;;;;;;;10.17;100.00;102574.00;5040386;28;20041;-75
2023/05/29 00:41:18;;;;;;;17.02;3.63;;;;;;;10.18;100.00;102570.53;5021302;28;20045;-75
2023/05/29 00:43:45;;;;;;;18.38;3.90;;;;;;;10.19;100.00;102578.50;4994313;28;20430;-75
2023/05/29 00:46:14;;;;;;;16.00;3.40;;;;;;;10.19;100.00;102577.56;5014436;28;20052;-75
2023/05/29 00:48:42;;;;;;;21.50;3.85;;;;;;;10.24;100.00;102583.91;5008436;28;20507;-75
2023/05/29 00:51:11;;;;;;;19.20;4.57;;;;;;;10.26;100.00;102579.56;4985299;28;20053;-75
2023/05/29 00:53:42;;;;;;;16.45;3.35;;;;;;;10.30;100.00;102587.66;5017819;28;20057;-75
2023/05/29 00:56:10;;;;;;;13.52;3.60;;;;;;;10.33;100.00;102587.75;5022895;28;20542;-75
2023/05/29 00:58:38;;;;;;;18.08;3.50;;;;;;;10.36;100.00;102581.69;5022142;28;20050;-75
2023/05/29 01:01:05;;;;;;;13.77;3.28;;;;;;;10.39;100.00;102594.06;4990477;28;20096;-75
2023/05/29 01:03:35;;;;;;;12.80;2.97;;;;;;;10.41;100.00;102593.25;5010539;28;20057;-75
2023/05/29 01:06:03;;;;;;;13.65;3.65;;;;;;;10.44;100.00;102598.66;4961059;28;20392;-75
2023/05/29 01:08:30;;;;;;;15.05;3.35;;;;;;;10.45;100.00;102596.88;5029607;28;20049;-75
2023/05/29 01:11:08;;;;;;;15.93;3.10;;;;;;;10.43;100.00;102599.47;5023404;28;20076;-75
2023/05/29 01:13:41;;;;;;;11.57;3.70;;;;;;;10.42;100.00;102597.69;5022364;28;20038;-75
2023/05/29 01:16:14;;;;;;;13.77;3.20;;;;;;;10.43;100.00;102590.69;5022576;28;20068;-75
2023/05/29 01:18:51;;;;;;;23.75;4.07;;;;;;;10.43;100.00;102596.84;5023236;28;20054;-75
2023/05/29 01:21:41;;;;;;;15.73;3.00;;;;;;;10.43;100.00;102596.84;4958942;28;20100;-75
2023/05/29 01:24:25;;;;;;;15.55;4.38;;;;;;;10.43;100.00;102596.84;5037779;28;20053;-75
2023/05/29 01:27:10;;;;;;;16.38;2.97;;;;;;;10.39;100.00;102602.84;5003263;28;20052;-75
2023/05/29 01:29:42;;;;;;;14.02;3.58;;;;;;;10.38;100.00;102601.09;5002974;28;20050;-75
2023/05/29 01:32:11;;;;;;;13.70;3.13;;;;;;;10.38;100.00;102582.63;5020861;28;20061;-75
2023/05/29 01:34:38;;;;;;;13.52;3.35;;;;;;;10.39;100.00;102586.16;5004935;28;20053;-74
2023/05/29 01:37:05;;;;;;;9.95;2.47;;;;;;;10.39;100.00;102588.78;4967118;28;20038;-75
2023/05/29 01:39:34;;;;;;;13.20;2.58;;;;;;;10.37;100.00;102594.00;5025402;28;20525;-75
2023/05/29 01:42:02;;;;;;;12.00;2.88;;;;;;;10.35;100.00;102585.16;5010420;28;20065;-75
2023/05/29 01:44:31;;;;;;;13.75;2.40;;;;;;;10.34;100.00;102596.56;5024635;28;20045;-75
2023/05/29 01:46:58;;;;;;;9.88;2.15;;;;;;;10.31;100.00;102596.47;4995046;28;20414;-75
2023/05/29 01:49:29;;;;;;;11.23;2.75;;;;;;;10.28;100.00;102591.97;5036693;28;20053;-75
2023/05/29 01:51:56;;;;;;;9.63;2.78;;;;;;;10.26;100.00;102592.75;4986050;28;20080;-75
2023/05/29 01:54:23;;;;;;;9.38;2.50;;;;;;;10.24;100.00;102602.34;5016671;28;20049;-75
2023/05/29 01:56:51;;;;;;;9.88;2.40;;;;;;;10.24;100.00;102603.22;5027567;28;20046;-75
2023/05/29 01:59:20;;;;;;;11.07;2.75;;;;;;;10.24;100.00;102594.44;5024580;28;20056;-75
2023/05/29 02:01:47;;;;;;;14.73;3.50;;;;;;;10.24;100.00;102603.22;5027427;28;20065;-75
2023/05/29 02:04:15;;;;;;;11.60;2.63;;;;;;;10.26;100.00;102595.38;5014609;28;20045;-75
2023/05/29 02:06:42;;;;;;;12.75;2.80;;;;;;;10.26;100.00;102604.16;5042794;28;20136;-75
2023/05/29 02:09:09;;;;;;;12.13;2.58;;;;;;;10.30;100.00;102602.53;4983008;28;20503;-75
2023/05/29 02:11:37;;;;;;;10.52;2.33;;;;;;;10.29;100.00;102595.50;5021457;28;20440;-75
2023/05/29 02:14:04;;;;;;;13.52;2.30;;;;;;;10.30;100.00;102599.91;4984763;28;20070;-75
2023/05/29 02:16:33;;;;;;;11.40;2.63;;;;;;;10.30;100.00;102605.16;5021151;28;20045;-75
2023/05/29 02:19:02;;;;;;;11.88;2.58;;;;;;;10.30;100.00;102603.47;5007478;28;20057;-75
2023/05/29 02:21:29;;;;;;;10.32;2.72;;;;;;;10.32;100.00;102599.16;5038680;28;20165;-74
2023/05/29 02:23:57;;;;;;;12.93;2.75;;;;;;;10.34;100.00;102604.47;4968403;28;20542;-74
2023/05/29 02:26:24;;;;;;;14.82;2.58;;;;;;;10.36;100.00;102594.88;5023241;28;20554;-74
2023/05/29 02:28:51;;;;;;;15.10;2.50;;;;;;;10.38;100.00;102601.09;5010071;28;20046;-74
2023/05/29 02:31:20;;;;;;;11.98;2.53;;;;;;;10.39;100.00;102605.50;5007469;28;20045;-74
2023/05/29 02:33:48;;;;;;;11.00;2.55;;;;;;;10.39;100.00;102597.59;5026887;28;20056;-74
2023/05/29 02:36:16;;;;;;;8.85;2.55;;;;;;;10.43;100.00;102598.59;5033501;28;20049;-74
2023/05/29 02:38:43;;;;;;;13.02;2.85;;;;;;;10.46;100.00;102606.59;4980927;28;20057;-74
2023/05/29 02:41:10;;;;;;;13.80;3.38;;;;;;;10.46;100.00;102601.34;5008523;28;20054;-74
2023/05/29 02:43:38;;;;;;;18.60;2.78;;;;;;;10.45;100.00;102597.81;5041787;28;20057;-74
2023/05/29 02:46:05;;;;;;;11.93;2.88;;;;;;;10.46;100.00;102606.59;5024811;28;20061;-74
2023/05/29 02:48:33;;;;;;;9.70;3.10;;;;;;;10.43;100.00;102599.47;5022087;28;20056;-74
2023/05/29 02:51:00;;;;;;;10.25;2.47;;;;;;;10.44;100.00;102603.03;5004146;28;20046;-74
2023/05/29 02:53:27;;;;;;;10.10;2.47;;;;;;;10.43;100.00;102591.56;5020659;28;20046;-74
2023/05/29 02:55:55;;;;;;;20.95;3.45;;;;;;;10.42;100.00;102595.06;4988617;28;20045;-74
2023/05/29 02:58:22;;;;;;;8.18;2.40;;;;;;;10.40;100.00;102593.25;5015359;28;20054;-74
2023/05/29 03:00:50;;;;;;;18.02;4.22;;;;;;;10.39;100.00;102589.69;5022728;28;20049;-74
2023/05/29 03:03:17;;;;;;;8.65;2.22;;;;;;;10.42;100.00;102596.81;5031319;28;20535;-74
2023/05/29 03:05:46;;;;;;;13.75;3.72;;;;;;;10.43;100.00;102598.59;5008430;28;20072;-74
2023/05/29 03:08:14;;;;;;;13.30;2.80;;;;;;;10.43;100.00;102594.19;5010122;28;20077;-74
2023/05/29 03:10:43;;;;;;;8.40;2.65;;;;;;;10.45;100.00;102597.81;4966085;28;20510;-74
2023/05/29 03:13:11;;;;;;;11.50;2.90;;;;;;;10.48;100.00;102594.38;4994545;28;20080;-74
2023/05/29 03:15:47;;;;;;;13.93;3.85;;;;;;;10.49;100.00;102594.41;5025353;28;20045;-74
2023/05/29 03:18:15;;;;;;;11.77;3.47;;;;;;;10.51;100.00;102603.25;4990420;28;20060;-75
2023/05/29 03:20:43;;;;;;;15.20;3.10;;;;;;;10.48;100.00;102589.97;5025482;28;20049;-75
2023/05/29 03:23:11;;;;;;;12.43;3.63;;;;;;;10.49;100.00;102596.13;4985989;28;20058;-75
2023/05/29 03:25:38;;;;;;;12.27;3.00;;;;;;;10.49;100.00;102596.13;4980349;28;20045;-75
2023/05/29 03:28:06;;;;;;;12.48;2.88;;;;;;;10.48;100.00;102591.72;5022873;28;20064;-75
2023/05/29 03:30:35;;;;;;;20.10;3.40;;;;;;;10.48;100.00;102592.63;5039491;28;20049;-75
2023/05/29 03:33:03;;;;;;;10.68;2.78;;;;;;;10.48;100.00;102597.88;5023713;28;20050;-74
2023/05/29 03:35:51;;;;;;;11.32;3.13;;;;;;;10.48;100.00;102599.63;4999815;28;20049;-73
2023/05/29 03:38:19;;;;;;;9.30;2.67;;;;;;;10.50;100.00;102603.22;5018634;28;20515;-74
2023/05/29 03:40:46;;;;;;;13.95;2.70;;;;;;;10.49;100.00;102604.97;4960465;28;20058;-74
2023/05/29 03:43:14;;;;;;;14.30;2.63;;;;;;;10.49;100.00;102610.22;5003816;28;20058;-74
2023/05/29 03:45:42;;;;;;;12.45;2.35;;;;;;;10.47;100.00;102613.66;5024557;28;20045;-74
2023/05/29 03:48:09;;;;;;;10.05;2.63;;;;;;;10.46;100.00;102614.50;5005805;28;20045;-74
2023/05/29 03:50:37;;;;;;;13.60;2.55;;;;;;;10.45;100.00;102610.06;5025052;28;20057;-74
2023/05/29 03:53:04;;;;;;;13.30;3.00;;;;;;;10.44;100.00;102609.19;5023484;28;20038;-74
2023/05/29 03:55:32;;;;;;;11.10;2.25;;;;;;;10.42;100.00;102613.50;5004183;28;20050;-74
2023/05/29 03:58:00;;;;;;;7.85;2.30;;;;;;;10.43;100.00;102610.00;4965941;28;20415;-74
2023/05/29 04:00:27;;;;;;;11.60;2.60;;;;;;;10.45;100.00;102617.97;5001673;28;20054;-75
2023/05/29 04:02:59;;;;;;;12.07;2.58;;;;;;;10.45;100.00;102613.63;5012199;28;20038;-74
2023/05/29 04:05:29;;;;;;;13.75;2.90;;;;;;;10.45;100.00;102616.25;5053745;28;20057;-73
2023/05/29 04:07:57;;;;;;;;;;;;;;;10.45;100.00;102618.91;5014179;28;20050;-74
2023/05/29 04:10:41;;;;;;;11.20;2.83;;;;;;;10.47;100.00;102613.66;5039425;28;19932;-74
2023/05/29 04:13:08;;;;;;;14.98;4.43;;;;;;;10.49;100.00;102620.78;4961605;28;20057;-74
2023/05/29 04:15:36;;;;;;;14.63;2.83;;;;;;;10.51;100.00;102623.47;5030180;28;20058;-74
2023/05/29 04:18:03;;;;;;;11.13;2.78;;;;;;;10.49;100.00;102619.84;5004897;28;20418;-74
2023/05/29 04:20:30;;;;;;;16.63;2.80;;;;;;;10.49;100.00;102620.78;5030818;28;20056;-74
2023/05/29 04:22:58;;;;;;;12.73;3.25;;;;;;;10.47;100.00;102622.47;5009679;28;20045;-74
2023/05/29 04:25:25;;;;;;;17.42;4.00;;;;;;;10.49;100.00;102626.06;5016819;28;20049;-74
2023/05/29 04:27:53;;;;;;;15.65;3.83;;;;;;;10.55;100.00;102630.63;4960874;28;20052;-74
2023/05/29 04:30:22;;;;;;;15.05;2.80;;;;;;;10.60;100.00;102629.00;5033503;28;20054;-74
2023/05/29 04:32:49;;;;;;;11.13;2.92;;;;;;;10.69;100.00;102629.28;5020384;28;20494;-74
2023/05/29 04:35:17;;;;;;;13.18;3.47;;;;;;;10.87;100.00;102628.97;5004428;28;20771;-74
2023/05/29 04:37:53;;;;;;;10.60;3.42;;;;;;;11.03;100.00;102618.88;5014044;28;20060;-75
2023/05/29 04:40:22;;;;;;;17.90;2.80;;;;;;;11.15;100.00;102629.78;5003454;28;20084;-74
2023/05/29 04:42:50;;;;;;;19.50;3.67;;;;;;;11.19;100.00;102630.78;4981159;28;20053;-75
2023/05/29 04:45:23;;;;;;;14.45;2.90;;;;;;;11.20;100.00;102644.00;5018664;28;20054;-74
2023/05/29 04:47:53;;;;;;;18.75;3.75;;;;;;;11.20;100.00;102643.13;5006337;28;20494;-75
2023/05/29 04:50:23;;;;;;;13.48;3.67;;;;;;;11.19;100.00;102639.59;5027684;28;20045;-75
2023/05/29 04:52:52;;;;;;;18.17;4.03;;;;;;;11.32;100.00;102638.19;5013792;28;20046;-75
2023/05/29 04:55:20;;;;;;;13.80;3.55;;;;;;;11.45;100.00;102629.75;5003577;28;20072;-75
2023/05/29 04:57:48;;;;;;;17.88;3.10;;;;;;;11.48;100.00;102634.25;4981945;28;20046;-75
2023/05/29 05:00:15;;;;;;;12.27;3.13;;;;;;;11.52;100.00;102636.13;4984826;28;20064;-75
2023/05/29 05:02:45;;;;;;;13.07;3.05;;;;;;;11.55;100.00;102648.50;5018198;28;20050;-75
2023/05/29 05:05:13;;;;;;;17.42;3.75;;;;;;;11.80;100.00;102644.81;4997991;28;20052;-75
2023/05/29 05:07:40;;;;;;;15.90;3.35;;;;;;;12.21;100.00;102637.06;5004960;28;20050;-75
2023/05/29 05:10:08;;;;;;;12.20;2.90;;;;;;;12.31;100.00;102649.69;4973669;28;20058;-76
2023/05/29 05:12:36;;;;;;;13.52;3.72;;;;;;;12.38;100.00;102640.13;5021694;28;20057;-75
2023/05/29 05:15:04;;;;;;;14.45;3.33;;;;;;;12.36;100.00;102650.69;4983266;28;20049;-74
2023/05/29 05:17:34;;;;;;;14.95;3.17;;;;;;;12.24;100.00;102655.66;5022486;28;20056;-75
2023/05/29 05:20:03;;;;;;;12.15;3.33;;;;;;;12.15;100.00;102647.50;5004338;28;20049;-76
2023/05/29 05:22:31;;;;;;;9.13;2.92;;;;;;;12.11;100.00;102650.94;5002265;28;20061;-75
2023/05/29 05:25:00;;;;;;;21.95;3.65;;;;;;;12.09;100.00;102651.75;5011511;28;20418;-75
2023/05/29 05:27:27;;;;;;;19.08;4.32;;;;;;;12.07;100.00;102647.31;5001637;28;20049;-75
2023/05/29 05:29:55;;;;;;;15.63;3.17;;;;;;;12.06;100.00;102646.44;5012716;28;20071;-76
2023/05/29 05:32:23;;;;;;;11.68;3.28;;;;;;;12.01;100.00;102648.03;4970708;28;20049;-74
2023/05/29 05:34:57;;;;;;;22.52;3.53;;;;;;;11.96;100.00;102648.78;5020159;28;20053;-74
2023/05/29 05:37:25;;;;;;;18.65;3.55;;;;;;;11.94;100.00;102651.38;5003159;28;20046;-73
2023/05/29 05:39:54;;;;;;;17.00;3.80;;;;;;;11.94;100.00;102646.09;4996738;28;20049;-74
2023/05/29 05:42:22;;;;;;;11.65;3.92;;;;;;;11.96;100.00;102651.41;5029693;28;20415;-73
2023/05/29 05:44:54;;;;;;;16.52;3.72;;;;;;;12.06;100.00;102653.44;5017628;28;20088;-76
2023/05/29 05:47:22;;;;;;;16.65;3.90;;;;;;;12.22;100.00;102658.25;4982984;28;20531;-74
2023/05/29 05:49:51;;;;;;;13.85;4.00;;;;;;;12.54;100.00;102658.16;5005970;28;20529;-74
2023/05/29 05:52:18;;;;;;;17.65;3.83;;;;;;;12.65;100.00;102655.78;5000902;28;20049;-74
2023/05/29 05:54:46;;;;;;;13.57;3.47;;;;;;;12.66;100.00;102661.13;5012697;28;20041;-74
2023/05/29 05:57:13;;;;;;;8.25;2.72;;;;;;;12.71;100.00;102653.28;4998622;28;20046;-74
2023/05/29 05:59:41;;;;;;;17.35;3.97;;;;;;;12.66;100.00;102654.91;5011560;28;20426;-74
2023/05/29 06:02:08;;;;;;;15.88;3.97;;;;;;;12.60;100.00;102673.28;4966118;28;20064;-73
2023/05/29 06:04:37;;;;;;;14.70;3.08;;;;;;;12.51;100.00;102651.91;4990394;28;20057;-74
2023/05/29 06:07:04;;;;;;;11.80;3.17;;;;;;;12.45;100.00;102671.16;4999761;28;20049;-74
2023/05/29 06:09:31;;;;;;;16.00;3.55;;;;;;;12.41;100.00;102670.19;5029673;28;20061;-75
2023/05/29 06:11:59;;;;;;;9.70;3.20;;;;;;;12.47;100.00;102667.69;5012270;28;20053;-75
2023/05/29 06:14:28;;;;;;;17.70;3.80;;;;;;;12.53;100.00;102666.94;5001398;28;20049;-74
2023/05/29 06:16:56;;;;;;;16.83;4.97;;;;;;;12.64;100.00;102662.81;4961560;28;20053;-76
2023/05/29 06:19:25;;;;;;;12.27;3.03;;;;;;;12.67;100.00;102659.34;5019367;28;20050;-74
2023/05/29 06:21:59;;;;;;;16.88;4.05;;;;;;;12.65;100.00;102672.53;5022856;28;20053;-74
2023/05/29 06:24:30;;;;;;;;;;;;;;;12.63;100.00;102684.84;5008658;28;20092;-74
2023/05/29 06:26:57;;;;;;;16.65;3.58;;;;;;;12.58;100.00;102677.66;5031301;28;19925;-74
2023/05/29 06:29:25;;;;;;;19.73;3.85;;;;;;;12.57;100.00;102684.69;4991408;28;20061;-74
2023/05/29 06:31:52;;;;;;;12.93;3.70;;;;;;;12.64;100.00;102685.72;4962577;28;20426;-75
2023/05/29 06:34:20;;;;;;;14.98;3.78;;;;;;;12.61;100.00;102697.13;5005625;28;20651;-75
2023/05/29 06:36:47;;;;;;;11.40;3.15;;;;;;;12.62;100.00;102688.31;5024474;28;20053;-75
2023/05/29 06:39:15;;;;;;;12.98;3.63;;;;;;;12.74;100.00;102700.97;5037893;28;20060;-74
2023/05/29 06:41:43;;;;;;;17.13;4.07;;;;;;;12.82;100.00;102709.09;5016682;28;20505;-74
2023/05/29 06:44:17;;;;;;;12.02;3.20;;;;;;;12.82;100.00;102706.44;5005344;28;20049;-74
2023/05/29 06:46:44;;;;;;;16.88;4.38;;;;;;;12.77;100.00;102716.03;5041355;28;20053;-74
2023/05/29 06:49:12;;;;;;;15.77;3.90;;;;;;;12.73;100.00;102715.03;4976068;28;20069;-74
2023/05/29 06:51:39;;;;;;;12.25;3.65;;;;;;;12.71;100.00;102724.69;5024843;28;20057;-74
2023/05/29 06:54:06;;;;;;;13.48;3.40;;;;;;;12.75;100.00;102721.25;5006516;28;20058;-74
2023/05/29 06:56:34;;;;;;;15.05;4.13;;;;;;;12.82;100.00;102717.91;5007118;28;20056;-74
2023/05/29 06:59:02;;;;;;;22.83;4.68;;;;;;;12.88;100.00;102715.41;5010088;28;20053;-74
2023/05/29 07:01:31;;;;;;;16.77;4.18;;;;;;;12.93;100.00;102722.56;5007747;28;20053;-74
2023/05/29 07:04:03;;;;;;;12.32;3.45;;;;;;;13.01;100.00;102724.53;4973480;28;20088;-73
2023/05/29 07:06:33;;;;;;;17.00;3.65;;;;;;;13.07;100.00;102721.13;5022919;28;20060;-74
2023/05/29 07:09:00;;;;;;;19.50;3.83;;;;;;;13.10;100.00;102723.84;5024313;28;20050;-74
2023/05/29 07:11:28;;;;;;;13.00;3.30;;;;;;;13.07;100.00;102722.00;4989253;28;20045;-74
2023/05/29 07:13:56;;;;;;;20.75;3.80;;;;;;;12.99;100.00;102723.59;5014653;28;20041;-74
2023/05/29 07:16:25;;;;;;;13.30;3.42;;;;;;;13.00;100.00;102727.13;4997278;28;20098;-74
2023/05/29 07:18:58;;;;;;;16.23;3.53;;;;;;;13.09;100.00;102731.75;4992770;28;20057;-75
2023/05/29 07:21:27;;;;;;;14.23;3.25;;;;;;;13.20;100.00;102733.78;5023302;28;20038;-75
2023/05/29 07:23:54;;;;;;;20.83;4.22;;;;;;;13.35;100.00;102732.38;4986598;28;20050;-74
2023/05/29 07:26:22;;;;;;;16.10;3.83;;;;;;;13.46;100.00;102722.91;5019537;28;20513;-75
2023/05/29 07:28:50;;;;;;;21.58;3.83;;;;;;;13.53;100.00;102722.16;4997721;28;20064;-75
2023/05/29 07:31:17;;;;;;;14.90;3.53;;;;;;;13.57;100.00;102721.38;5036672;28;20674;-75
2023/05/29 07:33:46;;;;;;;17.20;2.88;;;;;;;13.59;100.00;102726.69;4977250;28;20038;-76
2023/05/29 07:36:16;;;;;;;12.02;3.10;;;;;;;13.62;100.00;102729.41;5019935;28;20049;-75
2023/05/29 07:38:44;;;;;;;13.70;4.07;;;;;;;13.58;100.00;102723.16;5023414;28;20053;-76
2023/05/29 07:41:17;;;;;;;12.97;3.10;;;;;;;13.59;100.00;102732.91;5001610;28;20050;-75
2023/05/29 07:43:52;;;;;;;11.45;3.85;;;;;;;13.57;100.00;102724.03;4999321;28;20072;-76
2023/05/29 07:46:20;;;;;;;18.83;4.82;;;;;;;13.55;100.00;102733.66;5001294;28;20834;-75
2023/05/29 07:48:51;;;;;;;12.25;3.47;;;;;;;13.51;100.00;102729.19;4992765;28;20057;-77
2023/05/29 07:51:19;;;;;;;13.38;3.22;;;;;;;13.51;100.00;102741.53;4986520;28;20495;-76
2023/05/29 07:53:48;;;;;;;15.60;3.30;;;;;;;13.50;100.00;102740.66;5012110;28;20049;-75
2023/05/29 07:56:16;;;;;;;17.95;3.85;;;;;;;13.57;100.00;102734.63;5014267;28;20987;-75
2023/05/29 07:58:44;;;;;;;19.58;3.90;;;;;;;13.62;100.00;102737.34;4998430;28;20045;-75
2023/05/29 08:01:15;;;;;;;18.77;3.75;;;;;;;13.61;100.00;102736.47;5017947;28;20477;-75
2023/05/29 08:03:43;;;;;;;15.30;3.30;;;;;;;13.67;100.00;102735.72;4985170;28;20064;-77
2023/05/29 08:06:11;;;;;;;22.25;4.85;;;;;;;13.73;100.00;102734.94;5027949;28;20068;-75
2023/05/29 08:08:39;;;;;;;16.73;3.13;;;;;;;13.71;100.00;102736.66;5006512;28;20060;-76
2023/05/29 08:11:06;;;;;;;13.90;3.90;;;;;;;13.71;100.00;102734.00;5008679;28;20064;-77
2023/05/29 08:13:34;;;;;;;19.55;3.65;;;;;;;13.74;100.00;102737.63;5019839;28;20045;-76
2023/05/29 08:16:02;;;;;;;18.17;4.53;;;;;;;13.71;100.00;102740.19;5014562;28;20076;-75
2023/05/29 08:18:31;;;;;;;19.35;3.55;;;;;;;13.68;100.00;102739.25;4974115;28;20056;-76
2023/05/29 08:21:01;;;;;;;17.58;3.58;;;;;;;13.63;100.00;102750.63;5043602;28;20049;-76
2023/05/29 08:23:29;;;;;;;17.45;4.07;;;;;;;13.64;100.00;102738.28;4987796;28;20041;-75
2023/05/29 08:25:56;;;;;;;16.33;3.95;;;;;;;13.68;100.00;102745.41;5024512;28;20053;-78
2023/05/29 08:28:26;;;;;;;25.33;5.22;;;;;;;13.79;100.00;102743.88;5014821;28;20069;-75
2023/05/29 08:30:54;;;;;;;16.50;3.67;;;;;;;13.87;100.00;102741.38;4997108;28;20049;-75
2023/05/29 08:33:22;;;;;;;13.35;3.40;;;;;;;13.97;100.00;102737.16;4988379;28;20068;-75
2023/05/29 08:35:49;;;;;;;12.88;3.83;;;;;;;14.01;100.00;102752.28;4967899;28;20045;-75
2023/05/29 08:38:16;;;;;;;22.30;4.53;;;;;;;14.07;100.00;102754.16;4986474;28;20057;-76
2023/05/29 08:40:43;;;;;;;15.25;3.72;;;;;;;14.10;100.00;102748.88;5022571;28;20060;-76
2023/05/29 08:43:17;;;;;;;16.90;3.65;;;;;;;14.01;100.00;102760.22;5006949;28;20053;-77
2023/05/29 08:45:45;;;;;;;14.52;4.03;;;;;;;14.01;100.00;102765.53;5013889;28;20104;-76
2023/05/29 08:48:14;;;;;;;18.95;4.00;;;;;;;13.98;100.00;102762.81;4986469;28;20056;-76
2023/05/29 08:50:47;;;;;;;18.40;3.60;;;;;;;13.99;100.00;102754.91;4961978;28;20076;-77
2023/05/29 08:53:15;;;;;;;18.20;4.25;;;;;;;13.99;100.00;102759.31;5032356;28;20430;-76
2023/05/29 08:55:42;;;;;;;18.50;3.97;;;;;;;14.01;100.00;102762.88;5035050;28;20049;-75
2023/05/29 08:58:11;;;;;;;15.65;3.90;;;;;;;14.10;100.00;102757.75;4995265;28;20053;-76
2023/05/29 09:00:40;;;;;;;15.88;3.60;;;;;;;14.23;100.00;102756.22;5022503;28;20080;-77
2023/05/29 09:03:08;;;;;;;15.82;3.22;;;;;;;14.29;100.00;102763.38;5017369;28;20069;-76
2023/05/29 09:05:39;;;;;;;14.38;3.50;;;;;;;14.26;100.00;102758.94;4989411;28;20116;-76
2023/05/29 09:08:14;;;;;;;20.73;3.03;;;;;;;14.21;100.00;102760.59;5015559;28;20141;-75
2023/05/29 09:10:43;;;;;;;22.25;4.00;;;;;;;14.17;100.00;102751.69;5019437;28;20041;-76
2023/05/29 09:13:13;;;;;;;15.10;3.40;;;;;;;14.11;100.00;102759.53;5003293;28;20057;-76
2023/05/29 09:15:45;;;;;;;16.58;3.88;;;;;;;14.12;100.00;102766.63;5001963;28;20533;-76
2023/05/29 09:18:13;;;;;;;14.65;3.58;;;;;;;14.02;100.00;102765.53;4997438;28;20049;-76
2023/05/29 09:20:45;;;;;;;18.77;4.32;;;;;;;14.08;100.00;102755.91;4960130;28;20509;-76
2023/05/29 09:23:12;;;;;;;;;;;;;;;14.12;100.00;102758.69;5008463;28;20498;-74
2023/05/29 09:25:50;;;;;;;14.40;3.95;;;;;;;14.18;100.00;102761.44;5020035;28;20281;-76
2023/05/29 09:28:18;;;;;;;14.52;3.83;;;;;;;14.23;100.00;102758.84;5031359;28;20057;-77
2023/05/29 09:30:49;;;;;;;15.57;3.33;;;;;;;14.27;100.00;102758.03;5032163;28;20072;-76
2023/05/29 09:33:17;;;;;;;14.88;3.80;;;;;;;14.28;100.00;102754.53;4991735;28;20049;-76
2023/05/29 09:35:50;;;;;;;19.65;3.70;;;;;;;14.31;100.00;102765.22;5018899;28;20952;-76
2023/05/29 09:38:19;;;;;;;16.05;3.67;;;;;;;14.33;100.00;102758.19;4987979;28;20441;-76
2023/05/29 09:40:49;;;;;;;16.65;3.92;;;;;;;14.33;100.00;102754.59;5020018;28;20041;-76
2023/05/29 09:43:19;;;;;;;11.60;3.40;;;;;;;14.33;100.00;102758.19;5021381;28;20056;-76
2023/05/29 09:45:51;;;;;;;22.75;4.28;;;;;;;14.32;100.00;102758.16;5000293;28;20042;-75
2023/05/29 09:48:23;;;;;;;21.13;4.22;;;;;;;14.35;100.00;102761.75;4995613;28;20064;-74
2023/05/29 09:50:50;;;;;;;16.60;3.50;;;;;;;14.30;100.00;102760.75;5021162;28;20053;-75
2023/05/29 09:53:19;;;;;;;16.52;4.07;;;;;;;14.38;100.00;102766.19;4956404;28;20090;-75
2023/05/29 09:55:47;;;;;;;20.17;4.22;;;;;;;14.43;100.00;102770.72;5012894;28;20042;-75
2023/05/29 09:58:15;;;;;;;15.32;3.38;;;;;;;14.48;100.00;102764.59;5010132;28;20061;-75
2023/05/29 10:00:43;;;;;;;19.40;4.25;;;;;;;14.44;100.00;102763.66;5012964;28;20052;-76
2023/05/29 10:03:12;;;;;;;14.57;3.47;;;;;;;14.51;100.00;102775.28;4997615;28;20064;-76
2023/05/29 10:05:41;;;;;;;14.13;3.63;;;;;;;14.48;99.82;102765.53;5025465;28;20510;-76
2023/05/29 10:08:12;;;;;;;12.77;2.85;;;;;;;14.46;100.00;102754.00;4957108;28;20053;-76
2023/05/29 10:10:46;;;;;;;12.27;3.70;;;;;;;14.55;99.46;102762.09;5035018;28;20053;-76
2023/05/29 10:13:14;;;;;;;17.38;3.95;;;;;;;14.56;99.37;102753.28;5006377;28;20078;-76
2023/05/29 10:15:46;;;;;;;21.33;3.92;;;;;;;14.58;99.59;102762.19;5006794;28;20068;-76
2023/05/29 10:18:20;;;;;;;9.05;3.13;;;;;;;14.67;99.99;102756.16;5015143;28;20050;-75
2023/05/29 10:20:51;;;;;;;17.00;3.75;;;;;;;14.75;100.00;102756.28;5025269;28;20034;-76
2023/05/29 10:23:24;;;;;;;14.38;3.50;;;;;;;14.71;99.01;102754.44;4977275;28;20052;-76
2023/05/29 10:25:56;;;;;;;16.33;3.50;;;;;;;14.70;99.09;102753.53;4984585;28;20070;-76
2023/05/29 10:28:27;;;;;;;13.77;4.25;;;;;;;14.66;98.67;102764.97;5034493;28;20065;-83
2023/05/29 10:31:04;;;;;;;15.32;3.10;;;;;;;14.63;98.15;102770.25;5030390;28;20045;-76
2023/05/29 10:33:40;;;;;;;15.35;3.33;;;;;;;14.62;99.41;102757.81;4997842;28;20573;-77
2023/05/29 10:36:18;;;;;;;14.57;3.70;;;;;;;14.65;99.41;102759.63;5010437;28;20049;-77
2023/05/29 10:38:47;;;;;;;12.02;3.58;;;;;;;14.75;98.86;102758.94;5017600;28;20045;-77
2023/05/29 10:41:25;;;;;;;13.73;3.30;;;;;;;14.71;96.75;102763.28;4998526;28;20050;-77
2023/05/29 10:43:58;;;;;;;11.63;3.22;;;;;;;14.65;97.19;102749.00;5039617;28;20041;-76
2023/05/29 10:46:44;;;;;;;15.38;3.50;;;;;;;14.68;97.69;102752.59;5013313;28;20430;-75
2023/05/29 10:49:21;;;;;;;14.32;3.63;;;;;;;14.76;98.53;102755.38;5012055;28;20059;-75
2023/05/29 10:51:49;;;;;;;11.82;3.40;;;;;;;14.91;98.77;102760.06;5011740;28;20045;-76
2023/05/29 10:54:21;;;;;;;16.38;3.75;;;;;;;14.94;98.51;102760.13;5020212;28;20390;-76
2023/05/29 10:56:57;;;;;;;16.67;3.30;;;;;;;14.93;97.39;102767.19;4983532;28;20049;-76
2023/05/29 10:59:28;;;;;;;16.98;4.10;;;;;;;14.92;98.38;102761.84;5022656;28;20068;-75
2023/05/29 11:01:57;;;;;;;21.83;4.40;;;;;;;14.91;96.51;102768.00;5014238;28;20375;-76
2023/05/29 11:04:26;;;;;;;11.15;3.60;;;;;;;14.91;96.41;102762.72;5030069;28;20517;-76
2023/05/29 11:06:54;;;;;;;15.63;4.03;;;;;;;14.96;97.00;102747.75;5045742;28;20049;-76
2023/05/29 11:09:45;;;;;;;20.25;3.30;;;;;;;14.92;97.51;102761.84;4989062;28;20624;-76
2023/05/29 11:12:35;;;;;;;13.75;3.20;;;;;;;14.91;99.04;102754.75;4976258;28;20061;-75
2023/05/29 11:15:05;;;;;;;;;;;;;;;14.89;96.27;102759.13;5036282;28;20050;-75
2023/05/29 11:17:44;;;;;;;13.02;3.15;;;;;;;14.80;98.25;102757.22;5008460;28;20286;-75
2023/05/29 11:20:15;;;;;;;15.77;4.03;;;;;;;14.80;98.84;102746.59;5025336;28;20068;-74
2023/05/29 11:22:48;;;;;;;16.75;3.55;;;;;;;14.86;96.33;102752.03;5014061;28;20068;-75